sensor_id;sensor_type;location;lat;lon;timestamp;P1;durP1;ratioP1;P2;durP2;ratioP2
53751;SDS011;41095;53.090;6.692;2022-09-28T00:03:43;3.63;;;3.13;;
53751;SDS011;41095;53.090;6.692;2022-09-28T00:06:10;5.50;;;3.63;;
53751;SDS011;41095;53.090;6.692;2022-09-28T00:08:37;3.33;;;3.03;;
53751;SDS011;41095;53.090;6.692;2022-09-28T00:11:04;3.63;;;3.33;;
53751;SDS011;41095;53.090;6.692;2022-09-28T00:13:32;2.80;;;2.50;;
53751;SDS011;41095;53.090;6.692;2022-09-28T00:16:08;4.22;;;3.83;;
53751;SDS011;41095;53.090;6.692;2022-09-28T00:18:36;4.43;;;3.42;;
53751;SDS011;41095;53.090;6.692;2022-09-28T00:21:06;4.85;;;3.53;;
53751;SDS011;41095;53.090;6.692;2022-09-28T00:23:37;5.32;;;3.60;;
53751;SDS011;41095;53.090;6.692;2022-09-28T00:26:22;3.35;;;3.00;;
53751;SDS011;41095;53.090;6.692;2022-09-28T00:28:51;3.78;;;2.90;;
53751;SDS011;41095;53.090;6.692;2022-09-28T00:31:18;4.95;;;3.40;;
53751;SDS011;41095;53.090;6.692;2022-09-28T00:33:44;4.30;;;3.30;;
53751;SDS011;41095;53.090;6.692;2022-09-28T00:36:13;3.40;;;2.97;;
53751;SDS011;41095;53.090;6.692;2022-09-28T00:38:39;3.92;;;3.00;;
53751;SDS011;41095;53.090;6.692;2022-09-28T00:41:04;3.65;;;3.35;;
53751;SDS011;41095;53.090;6.692;2022-09-28T00:43:30;3.95;;;3.55;;
53751;SDS011;41095;53.090;6.692;2022-09-28T00:46:00;3.78;;;3.30;;
53751;SDS011;41095;53.090;6.692;2022-09-28T00:48:34;3.25;;;3.00;;
53751;SDS011;41095;53.090;6.692;2022-09-28T00:51:05;2.70;;;2.50;;
53751;SDS011;41095;53.090;6.692;2022-09-28T00:53:35;3.20;;;2.90;;
53751;SDS011;41095;53.090;6.692;2022-09-28T00:56:04;5.20;;;4.03;;
53751;SDS011;41095;53.090;6.692;2022-09-28T00:58:43;4.85;;;3.75;;
53751;SDS011;41095;53.090;6.692;2022-09-28T01:01:14;4.15;;;3.85;;
53751;SDS011;41095;53.090;6.692;2022-09-28T01:03:40;4.88;;;3.42;;
53751;SDS011;41095;53.090;6.692;2022-09-28T01:06:09;3.72;;;3.42;;
53751;SDS011;41095;53.090;6.692;2022-09-28T01:08:41;4.07;;;3.28;;
53751;SDS011;41095;53.090;6.692;2022-09-28T01:11:08;4.15;;;3.40;;
53751;SDS011;41095;53.090;6.692;2022-09-28T01:13:34;4.40;;;4.00;;
53751;SDS011;41095;53.090;6.692;2022-09-28T01:21:02;6.68;;;4.53;;
53751;SDS011;41095;53.090;6.692;2022-09-28T01:29:03;3.22;;;2.92;;
53751;SDS011;41095;53.090;6.692;2022-09-28T01:31:36;3.30;;;2.97;;
53751;SDS011;41095;53.090;6.692;2022-09-28T01:34:10;3.22;;;2.92;;
53751;SDS011;41095;53.090;6.692;2022-09-28T01:36:47;3.95;;;3.20;;
53751;SDS011;41095;53.090;6.692;2022-09-28T01:39:21;3.40;;;3.10;;
53751;SDS011;41095;53.090;6.692;2022-09-28T01:41:50;3.88;;;3.22;;
53751;SDS011;41095;53.090;6.692;2022-09-28T01:44:18;3.75;;;3.10;;
53751;SDS011;41095;53.090;6.692;2022-09-28T01:46:46;4.75;;;3.00;;
53751;SDS011;41095;53.090;6.692;2022-09-28T01:49:16;3.05;;;2.75;;
53751;SDS011;41095;53.090;6.692;2022-09-28T02:00:09;8.50;;;3.92;;
53751;SDS011;41095;53.090;6.692;2022-09-28T02:02:43;29.55;;;7.75;;
53751;SDS011;41095;53.090;6.692;2022-09-28T02:07:50;7.47;;;4.00;;
53751;SDS011;41095;53.090;6.692;2022-09-28T02:13:36;9.63;;;3.38;;
53751;SDS011;41095;53.090;6.692;2022-09-28T02:16:15;2.17;;;1.88;;
53751;SDS011;41095;53.090;6.692;2022-09-28T02:19:02;2.13;;;1.92;;
53751;SDS011;41095;53.090;6.692;2022-09-28T02:21:40;2.28;;;1.80;;
53751;SDS011;41095;53.090;6.692;2022-09-28T02:24:22;6.20;;;2.95;;
53751;SDS011;41095;53.090;6.692;2022-09-28T02:26:53;3.90;;;3.03;;
53751;SDS011;41095;53.090;6.692;2022-09-28T02:29:23;4.78;;;2.83;;
53751;SDS011;41095;53.090;6.692;2022-09-28T02:31:49;11.23;;;4.82;;
53751;SDS011;41095;53.090;6.692;2022-09-28T02:34:16;12.75;;;4.07;;
53751;SDS011;41095;53.090;6.692;2022-09-28T02:36:41;11.45;;;4.70;;
53751;SDS011;41095;53.090;6.692;2022-09-28T02:39:15;21.13;;;5.13;;
53751;SDS011;41095;53.090;6.692;2022-09-28T02:44:48;48.22;;;7.90;;
53751;SDS011;41095;53.090;6.692;2022-09-28T02:50:30;84.35;;;13.00;;
53751;SDS011;41095;53.090;6.692;2022-09-28T02:56:07;43.20;;;11.75;;
53751;SDS011;41095;53.090;6.692;2022-09-28T02:58:52;65.07;;;13.75;;
53751;SDS011;41095;53.090;6.692;2022-09-28T03:04:27;41.75;;;10.60;;
53751;SDS011;41095;53.090;6.692;2022-09-28T03:07:12;32.70;;;10.00;;
53751;SDS011;41095;53.090;6.692;2022-09-28T03:09:45;39.53;;;11.35;;
53751;SDS011;41095;53.090;6.692;2022-09-28T03:12:18;28.92;;;9.63;;
53751;SDS011;41095;53.090;6.692;2022-09-28T03:14:47;50.60;;;10.30;;
53751;SDS011;41095;53.090;6.692;2022-09-28T03:17:30;36.78;;;9.80;;
53751;SDS011;41095;53.090;6.692;2022-09-28T03:19:56;24.17;;;8.40;;
53751;SDS011;41095;53.090;6.692;2022-09-28T03:22:21;9.02;;;5.13;;
53751;SDS011;41095;53.090;6.692;2022-09-28T03:24:47;33.90;;;9.45;;
53751;SDS011;41095;53.090;6.692;2022-09-28T03:27:13;43.58;;;8.52;;
53751;SDS011;41095;53.090;6.692;2022-09-28T03:29:38;17.90;;;7.28;;
53751;SDS011;41095;53.090;6.692;2022-09-28T03:32:04;43.78;;;8.43;;
53751;SDS011;41095;53.090;6.692;2022-09-28T03:34:30;28.95;;;8.13;;
53751;SDS011;41095;53.090;6.692;2022-09-28T03:36:56;24.40;;;7.53;;
53751;SDS011;41095;53.090;6.692;2022-09-28T03:39:21;55.58;;;10.93;;
53751;SDS011;41095;53.090;6.692;2022-09-28T03:41:47;22.17;;;6.93;;
53751;SDS011;41095;53.090;6.692;2022-09-28T03:44:12;17.17;;;6.60;;
53751;SDS011;41095;53.090;6.692;2022-09-28T03:46:38;48.08;;;10.48;;
53751;SDS011;41095;53.090;6.692;2022-09-28T03:49:04;32.45;;;7.07;;
53751;SDS011;41095;53.090;6.692;2022-09-28T03:51:29;43.83;;;8.13;;
53751;SDS011;41095;53.090;6.692;2022-09-28T03:53:55;17.83;;;6.75;;
53751;SDS011;41095;53.090;6.692;2022-09-28T03:56:21;14.63;;;5.45;;
53751;SDS011;41095;53.090;6.692;2022-09-28T03:58:47;15.60;;;6.07;;
53751;SDS011;41095;53.090;6.692;2022-09-28T04:01:13;13.38;;;4.88;;
53751;SDS011;41095;53.090;6.692;2022-09-28T04:03:42;41.55;;;9.32;;
53751;SDS011;41095;53.090;6.692;2022-09-28T04:06:08;16.30;;;6.28;;
53751;SDS011;41095;53.090;6.692;2022-09-28T04:08:34;17.77;;;6.88;;
53751;SDS011;41095;53.090;6.692;2022-09-28T04:11:00;8.15;;;4.88;;
53751;SDS011;41095;53.090;6.692;2022-09-28T04:13:26;29.77;;;6.88;;
53751;SDS011;41095;53.090;6.692;2022-09-28T04:15:57;23.67;;;7.38;;
53751;SDS011;41095;53.090;6.692;2022-09-28T04:18:24;32.25;;;7.43;;
53751;SDS011;41095;53.090;6.692;2022-09-28T04:20:59;23.20;;;6.75;;
53751;SDS011;41095;53.090;6.692;2022-09-28T04:23:33;19.80;;;7.50;;
53751;SDS011;41095;53.090;6.692;2022-09-28T04:26:01;25.67;;;8.00;;
53751;SDS011;41095;53.090;6.692;2022-09-28T04:28:28;46.78;;;9.45;;
53751;SDS011;41095;53.090;6.692;2022-09-28T04:31:13;12.60;;;5.70;;
53751;SDS011;41095;53.090;6.692;2022-09-28T04:33:41;41.15;;;10.93;;
53751;SDS011;41095;53.090;6.692;2022-09-28T04:36:07;35.78;;;8.88;;
53751;SDS011;41095;53.090;6.692;2022-09-28T04:38:34;37.67;;;10.02;;
53751;SDS011;41095;53.090;6.692;2022-09-28T04:41:01;39.33;;;8.73;;
53751;SDS011;41095;53.090;6.692;2022-09-28T04:43:27;69.57;;;11.50;;
53751;SDS011;41095;53.090;6.692;2022-09-28T04:45:59;42.40;;;8.82;;
53751;SDS011;41095;53.090;6.692;2022-09-28T04:50:56;47.85;;;10.85;;
53751;SDS011;41095;53.090;6.692;2022-09-28T04:53:23;70.75;;;13.98;;
53751;SDS011;41095;53.090;6.692;2022-09-28T04:56:09;52.13;;;9.50;;
53751;SDS011;41095;53.090;6.692;2022-09-28T04:58:36;31.10;;;8.02;;
53751;SDS011;41095;53.090;6.692;2022-09-28T05:01:03;33.08;;;10.13;;
53751;SDS011;41095;53.090;6.692;2022-09-28T05:03:31;17.90;;;8.15;;
53751;SDS011;41095;53.090;6.692;2022-09-28T05:05:58;68.40;;;13.63;;
53751;SDS011;41095;53.090;6.692;2022-09-28T05:08:24;75.13;;;13.98;;
53751;SDS011;41095;53.090;6.692;2022-09-28T05:10:57;34.30;;;9.57;;
53751;SDS011;41095;53.090;6.692;2022-09-28T05:13:28;40.70;;;9.52;;
53751;SDS011;41095;53.090;6.692;2022-09-28T05:15:55;18.05;;;7.72;;
53751;SDS011;41095;53.090;6.692;2022-09-28T05:18:21;54.95;;;11.27;;
53751;SDS011;41095;53.090;6.692;2022-09-28T05:20:48;66.22;;;12.05;;
53751;SDS011;41095;53.090;6.692;2022-09-28T05:23:14;53.80;;;10.90;;
53751;SDS011;41095;53.090;6.692;2022-09-28T05:25:40;105.78;;;13.77;;
53751;SDS011;41095;53.090;6.692;2022-09-28T05:28:07;93.05;;;13.13;;
53751;SDS011;41095;53.090;6.692;2022-09-28T05:30:34;111.43;;;14.40;;
53751;SDS011;41095;53.090;6.692;2022-09-28T05:32:59;127.30;;;15.30;;
53751;SDS011;41095;53.090;6.692;2022-09-28T05:35:26;37.50;;;9.05;;
53751;SDS011;41095;53.090;6.692;2022-09-28T05:37:51;64.03;;;10.82;;
53751;SDS011;41095;53.090;6.692;2022-09-28T05:40:19;35.72;;;8.93;;
53751;SDS011;41095;53.090;6.692;2022-09-28T05:42:45;64.40;;;12.88;;
53751;SDS011;41095;53.090;6.692;2022-09-28T05:45:10;86.40;;;12.27;;
53751;SDS011;41095;53.090;6.692;2022-09-28T05:47:40;76.00;;;12.50;;
53751;SDS011;41095;53.090;6.692;2022-09-28T05:50:08;13.43;;;5.93;;
53751;SDS011;41095;53.090;6.692;2022-09-28T05:52:36;17.05;;;7.57;;
53751;SDS011;41095;53.090;6.692;2022-09-28T05:55:05;13.68;;;6.47;;
53751;SDS011;41095;53.090;6.692;2022-09-28T05:57:31;38.83;;;8.15;;
53751;SDS011;41095;53.090;6.692;2022-09-28T05:59:57;47.75;;;10.07;;
53751;SDS011;41095;53.090;6.692;2022-09-28T06:02:23;11.77;;;5.45;;
53751;SDS011;41095;53.090;6.692;2022-09-28T06:04:49;59.58;;;10.73;;
53751;SDS011;41095;53.090;6.692;2022-09-28T06:07:15;22.33;;;7.03;;
53751;SDS011;41095;53.090;6.692;2022-09-28T06:09:42;31.45;;;7.97;;
53751;SDS011;41095;53.090;6.692;2022-09-28T06:12:07;45.35;;;10.82;;
53751;SDS011;41095;53.090;6.692;2022-09-28T06:14:33;34.70;;;8.82;;
53751;SDS011;41095;53.090;6.692;2022-09-28T06:16:59;19.98;;;6.55;;
53751;SDS011;41095;53.090;6.692;2022-09-28T06:19:25;26.48;;;6.93;;
53751;SDS011;41095;53.090;6.692;2022-09-28T06:21:50;23.00;;;7.97;;
53751;SDS011;41095;53.090;6.692;2022-09-28T06:24:16;24.63;;;7.40;;
53751;SDS011;41095;53.090;6.692;2022-09-28T06:26:42;21.15;;;7.18;;
53751;SDS011;41095;53.090;6.692;2022-09-28T06:44:28;51.28;;;12.73;;
53751;SDS011;41095;53.090;6.692;2022-09-28T06:46:54;30.10;;;10.35;;
53751;SDS011;41095;53.090;6.692;2022-09-28T06:49:20;65.60;;;14.30;;
53751;SDS011;41095;53.090;6.692;2022-09-28T06:51:46;78.72;;;13.18;;
53751;SDS011;41095;53.090;6.692;2022-09-28T06:54:12;52.10;;;11.82;;
53751;SDS011;41095;53.090;6.692;2022-09-28T06:56:37;22.92;;;8.43;;
53751;SDS011;41095;53.090;6.692;2022-09-28T06:59:03;80.47;;;10.98;;
53751;SDS011;41095;53.090;6.692;2022-09-28T07:01:29;71.43;;;10.70;;
53751;SDS011;41095;53.090;6.692;2022-09-28T07:03:54;170.68;;;19.98;;
53751;SDS011;41095;53.090;6.692;2022-09-28T07:06:21;142.60;;;17.08;;
53751;SDS011;41095;53.090;6.692;2022-09-28T07:08:50;24.67;;;9.18;;
53751;SDS011;41095;53.090;6.692;2022-09-28T07:11:15;71.70;;;11.38;;
53751;SDS011;41095;53.090;6.692;2022-09-28T07:13:44;60.33;;;10.65;;
53751;SDS011;41095;53.090;6.692;2022-09-28T07:16:10;40.42;;;8.95;;
53751;SDS011;41095;53.090;6.692;2022-09-28T07:18:36;89.05;;;12.45;;
53751;SDS011;41095;53.090;6.692;2022-09-28T07:21:02;97.20;;;14.27;;
53751;SDS011;41095;53.090;6.692;2022-09-28T07:23:31;43.15;;;8.75;;
53751;SDS011;41095;53.090;6.692;2022-09-28T07:25:57;82.82;;;12.25;;
53751;SDS011;41095;53.090;6.692;2022-09-28T07:28:28;102.10;;;12.32;;
53751;SDS011;41095;53.090;6.692;2022-09-28T07:30:55;135.90;;;16.90;;
53751;SDS011;41095;53.090;6.692;2022-09-28T07:33:22;40.13;;;8.65;;
53751;SDS011;41095;53.090;6.692;2022-09-28T07:35:55;33.88;;;9.00;;
53751;SDS011;41095;53.090;6.692;2022-09-28T07:38:21;146.50;;;17.83;;
53751;SDS011;41095;53.090;6.692;2022-09-28T07:40:46;20.65;;;6.78;;
53751;SDS011;41095;53.090;6.692;2022-09-28T07:43:31;44.58;;;9.48;;
53751;SDS011;41095;53.090;6.692;2022-09-28T07:45:56;50.80;;;11.32;;
53751;SDS011;41095;53.090;6.692;2022-09-28T07:48:22;17.65;;;6.20;;
53751;SDS011;41095;53.090;6.692;2022-09-28T07:50:53;12.13;;;5.55;;
53751;SDS011;41095;53.090;6.692;2022-09-28T07:53:22;30.63;;;8.47;;
53751;SDS011;41095;53.090;6.692;2022-09-28T07:55:56;27.23;;;6.65;;
53751;SDS011;41095;53.090;6.692;2022-09-28T07:58:29;51.45;;;8.15;;
53751;SDS011;41095;53.090;6.692;2022-09-28T08:00:57;49.67;;;9.85;;
53751;SDS011;41095;53.090;6.692;2022-09-28T08:03:25;26.13;;;7.88;;
53751;SDS011;41095;53.090;6.692;2022-09-28T08:05:56;27.05;;;6.30;;
53751;SDS011;41095;53.090;6.692;2022-09-28T08:08:25;19.73;;;6.22;;
53751;SDS011;41095;53.090;6.692;2022-09-28T08:10:51;31.27;;;6.80;;
53751;SDS011;41095;53.090;6.692;2022-09-28T08:13:17;14.13;;;6.25;;
53751;SDS011;41095;53.090;6.692;2022-09-28T08:15:44;10.55;;;5.50;;
53751;SDS011;41095;53.090;6.692;2022-09-28T08:18:15;11.18;;;4.93;;
53751;SDS011;41095;53.090;6.692;2022-09-28T08:20:41;15.93;;;5.50;;
53751;SDS011;41095;53.090;6.692;2022-09-28T08:23:25;13.07;;;5.30;;
53751;SDS011;41095;53.090;6.692;2022-09-28T08:25:51;15.20;;;5.47;;
53751;SDS011;41095;53.090;6.692;2022-09-28T08:28:18;7.38;;;5.63;;
53751;SDS011;41095;53.090;6.692;2022-09-28T08:30:46;15.13;;;6.55;;
53751;SDS011;41095;53.090;6.692;2022-09-28T08:33:13;42.42;;;8.80;;
53751;SDS011;41095;53.090;6.692;2022-09-28T08:35:40;8.65;;;5.45;;
53751;SDS011;41095;53.090;6.692;2022-09-28T08:38:06;7.93;;;5.32;;
53751;SDS011;41095;53.090;6.692;2022-09-28T08:46:41;5.20;;;4.00;;
53751;SDS011;41095;53.090;6.692;2022-09-28T08:49:24;5.85;;;4.65;;
53751;SDS011;41095;53.090;6.692;2022-09-28T08:51:57;6.72;;;4.72;;
53751;SDS011;41095;53.090;6.692;2022-09-28T08:54:32;6.10;;;4.23;;
53751;SDS011;41095;53.090;6.692;2022-09-28T08:59:54;6.50;;;5.00;;
53751;SDS011;41095;53.090;6.692;2022-09-28T09:02:22;7.32;;;5.38;;
53751;SDS011;41095;53.090;6.692;2022-09-28T09:04:55;6.38;;;4.75;;
53751;SDS011;41095;53.090;6.692;2022-09-28T09:15:36;4.47;;;4.07;;
53751;SDS011;41095;53.090;6.692;2022-09-28T09:20:52;5.22;;;4.05;;
53751;SDS011;41095;53.090;6.692;2022-09-28T09:26:03;4.53;;;4.03;;
53751;SDS011;41095;53.090;6.692;2022-09-28T09:34:06;5.38;;;4.00;;
53751;SDS011;41095;53.090;6.692;2022-09-28T09:44:58;5.18;;;3.72;;
53751;SDS011;41095;53.090;6.692;2022-09-28T09:47:42;4.13;;;3.45;;
53751;SDS011;41095;53.090;6.692;2022-09-28T09:50:18;4.78;;;3.83;;
53751;SDS011;41095;53.090;6.692;2022-09-28T09:52:57;4.70;;;3.50;;
53751;SDS011;41095;53.090;6.692;2022-09-28T09:55:40;4.57;;;3.17;;
53751;SDS011;41095;53.090;6.692;2022-09-28T10:00:42;5.28;;;3.90;;
53751;SDS011;41095;53.090;6.692;2022-09-28T10:03:14;4.05;;;3.33;;
53751;SDS011;41095;53.090;6.692;2022-09-28T10:05:54;6.82;;;4.78;;
53751;SDS011;41095;53.090;6.692;2022-09-28T10:08:42;5.45;;;3.85;;
53751;SDS011;41095;53.090;6.692;2022-09-28T10:11:14;3.85;;;3.15;;
53751;SDS011;41095;53.090;6.692;2022-09-28T10:13:47;4.10;;;3.70;;
53751;SDS011;41095;53.090;6.692;2022-09-28T10:16:14;5.35;;;3.13;;
53751;SDS011;41095;53.090;6.692;2022-09-28T10:18:42;4.13;;;3.33;;
53751;SDS011;41095;53.090;6.692;2022-09-28T10:21:12;5.15;;;3.83;;
53751;SDS011;41095;53.090;6.692;2022-09-28T10:23:39;4.47;;;3.10;;
53751;SDS011;41095;53.090;6.692;2022-09-28T10:26:08;3.05;;;2.75;;
53751;SDS011;41095;53.090;6.692;2022-09-28T10:28:42;3.03;;;2.72;;
53751;SDS011;41095;53.090;6.692;2022-09-28T10:34:00;3.63;;;2.50;;
53751;SDS011;41095;53.090;6.692;2022-09-28T10:36:27;4.07;;;2.80;;
53751;SDS011;41095;53.090;6.692;2022-09-28T10:38:53;3.42;;;2.83;;
53751;SDS011;41095;53.090;6.692;2022-09-28T10:41:19;3.17;;;2.70;;
53751;SDS011;41095;53.090;6.692;2022-09-28T10:43:51;2.72;;;2.28;;
53751;SDS011;41095;53.090;6.692;2022-09-28T10:46:33;4.57;;;2.38;;
53751;SDS011;41095;53.090;6.692;2022-09-28T10:49:12;2.20;;;1.60;;
53751;SDS011;41095;53.090;6.692;2022-09-28T10:51:42;2.22;;;2.03;;
53751;SDS011;41095;53.090;6.692;2022-09-28T10:54:19;3.85;;;1.88;;
53751;SDS011;41095;53.090;6.692;2022-09-28T10:56:49;1.60;;;1.33;;
53751;SDS011;41095;53.090;6.692;2022-09-28T11:01:54;2.90;;;1.20;;
53751;SDS011;41095;53.090;6.692;2022-09-28T11:04:39;1.20;;;1.10;;
53751;SDS011;41095;53.090;6.692;2022-09-28T11:07:20;1.55;;;1.42;;
53751;SDS011;41095;53.090;6.692;2022-09-28T11:09:52;1.60;;;1.50;;
53751;SDS011;41095;53.090;6.692;2022-09-28T11:12:19;2.58;;;1.83;;
53751;SDS011;41095;53.090;6.692;2022-09-28T11:15:04;3.22;;;2.10;;
53751;SDS011;41095;53.090;6.692;2022-09-28T11:17:37;3.03;;;1.75;;
53751;SDS011;41095;53.090;6.692;2022-09-28T11:22:48;3.35;;;1.67;;
53751;SDS011;41095;53.090;6.692;2022-09-28T11:28:03;5.40;;;1.75;;
53751;SDS011;41095;53.090;6.692;2022-09-28T11:38:39;1.40;;;1.08;;
53751;SDS011;41095;53.090;6.692;2022-09-28T11:52:17;1.65;;;0.40;;
53751;SDS011;41095;53.090;6.692;2022-09-28T11:55:17;0.45;;;0.40;;
53751;SDS011;41095;53.090;6.692;2022-09-28T11:58:05;1.48;;;0.50;;
53751;SDS011;41095;53.090;6.692;2022-09-28T12:03:39;1.20;;;1.00;;
53751;SDS011;41095;53.090;6.692;2022-09-28T12:06:17;0.60;;;0.60;;
53751;SDS011;41095;53.090;6.692;2022-09-28T12:08:52;0.60;;;0.60;;
53751;SDS011;41095;53.090;6.692;2022-09-28T12:11:46;1.10;;;0.82;;
53751;SDS011;41095;53.090;6.692;2022-09-28T12:14:20;0.68;;;0.68;;
53751;SDS011;41095;53.090;6.692;2022-09-28T12:17:02;0.80;;;0.80;;
53751;SDS011;41095;53.090;6.692;2022-09-28T12:19:39;1.33;;;0.93;;
53751;SDS011;41095;53.090;6.692;2022-09-28T12:22:21;1.15;;;0.63;;
53751;SDS011;41095;53.090;6.692;2022-09-28T12:24:51;0.77;;;0.77;;
53751;SDS011;41095;53.090;6.692;2022-09-28T12:27:40;0.80;;;0.57;;
53751;SDS011;41095;53.090;6.692;2022-09-28T12:30:18;2.90;;;0.60;;
53751;SDS011;41095;53.090;6.692;2022-09-28T12:32:54;1.05;;;0.60;;
53751;SDS011;41095;53.090;6.692;2022-09-28T12:38:24;1.48;;;0.80;;
53751;SDS011;41095;53.090;6.692;2022-09-28T12:47:05;1.02;;;0.93;;
53751;SDS011;41095;53.090;6.692;2022-09-28T12:58:36;1.05;;;0.90;;
53751;SDS011;41095;53.090;6.692;2022-09-28T13:04:04;0.80;;;0.70;;
53751;SDS011;41095;53.090;6.692;2022-09-28T13:09:27;0.60;;;0.60;;
53751;SDS011;41095;53.090;6.692;2022-09-28T13:25:31;0.80;;;0.80;;
53751;SDS011;41095;53.090;6.692;2022-09-28T13:28:03;0.80;;;0.80;;
53751;SDS011;41095;53.090;6.692;2022-09-28T13:30:31;2.05;;;0.77;;
53751;SDS011;41095;53.090;6.692;2022-09-28T13:33:00;0.88;;;0.88;;
53751;SDS011;41095;53.090;6.692;2022-09-28T13:35:29;0.80;;;0.80;;
53751;SDS011;41095;53.090;6.692;2022-09-28T13:43:33;0.65;;;0.60;;
53751;SDS011;41095;53.090;6.692;2022-09-28T13:46:01;1.77;;;0.65;;
53751;SDS011;41095;53.090;6.692;2022-09-28T13:48:43;1.75;;;1.00;;
53751;SDS011;41095;53.090;6.692;2022-09-28T13:51:38;1.35;;;0.70;;
53751;SDS011;41095;53.090;6.692;2022-09-28T13:57:15;0.68;;;0.68;;
53751;SDS011;41095;53.090;6.692;2022-09-28T14:00:11;1.25;;;0.75;;
53751;SDS011;41095;53.090;6.692;2022-09-28T14:05:51;0.65;;;0.65;;
53751;SDS011;41095;53.090;6.692;2022-09-28T14:16:41;0.85;;;0.75;;
53751;SDS011;41095;53.090;6.692;2022-09-28T14:19:21;1.02;;;0.82;;
53751;SDS011;41095;53.090;6.692;2022-09-28T14:24:28;0.70;;;0.70;;
53751;SDS011;41095;53.090;6.692;2022-09-28T14:32:36;1.30;;;0.98;;
53751;SDS011;41095;53.090;6.692;2022-09-28T14:35:16;2.58;;;0.93;;
53751;SDS011;41095;53.090;6.692;2022-09-28T14:37:54;1.33;;;1.23;;
53751;SDS011;41095;53.090;6.692;2022-09-28T14:40:58;1.55;;;1.20;;
53751;SDS011;41095;53.090;6.692;2022-09-28T14:56:32;2.88;;;1.02;;
53751;SDS011;41095;53.090;6.692;2022-09-28T14:59:12;1.00;;;0.77;;
53751;SDS011;41095;53.090;6.692;2022-09-28T15:01:42;1.42;;;1.10;;
53751;SDS011;41095;53.090;6.692;2022-09-28T15:04:12;1.52;;;1.42;;
53751;SDS011;41095;53.090;6.692;2022-09-28T15:06:45;1.13;;;0.80;;
53751;SDS011;41095;53.090;6.692;2022-09-28T15:09:32;1.20;;;1.10;;
53751;SDS011;41095;53.090;6.692;2022-09-28T15:12:03;0.80;;;0.80;;
53751;SDS011;41095;53.090;6.692;2022-09-28T15:14:44;1.88;;;0.98;;
53751;SDS011;41095;53.090;6.692;2022-09-28T15:17:18;1.15;;;0.95;;
53751;SDS011;41095;53.090;6.692;2022-09-28T15:22:44;0.80;;;0.80;;
53751;SDS011;41095;53.090;6.692;2022-09-28T15:25:12;0.80;;;0.80;;
53751;SDS011;41095;53.090;6.692;2022-09-28T15:27:44;2.67;;;1.35;;
53751;SDS011;41095;53.090;6.692;2022-09-28T15:32:51;2.10;;;0.90;;
53751;SDS011;41095;53.090;6.692;2022-09-28T15:35:22;1.08;;;1.00;;
53751;SDS011;41095;53.090;6.692;2022-09-28T15:37:50;0.95;;;0.80;;
53751;SDS011;41095;53.090;6.692;2022-09-28T15:40:22;0.88;;;0.80;;
53751;SDS011;41095;53.090;6.692;2022-09-28T15:42:52;4.28;;;0.93;;
53751;SDS011;41095;53.090;6.692;2022-09-28T15:45:30;1.33;;;0.82;;
53751;SDS011;41095;53.090;6.692;2022-09-28T15:48:17;0.77;;;0.70;;
53751;SDS011;41095;53.090;6.692;2022-09-28T15:50:54;2.50;;;1.23;;
53751;SDS011;41095;53.090;6.692;2022-09-28T15:53:21;2.50;;;1.20;;
53751;SDS011;41095;53.090;6.692;2022-09-28T15:55:47;0.80;;;0.80;;
53751;SDS011;41095;53.090;6.692;2022-09-28T15:58:16;1.58;;;0.52;;
53751;SDS011;41095;53.090;6.692;2022-09-28T16:00:47;1.00;;;0.60;;
53751;SDS011;41095;53.090;6.692;2022-09-28T16:03:20;4.32;;;0.80;;
53751;SDS011;41095;53.090;6.692;2022-09-28T16:14:14;0.60;;;0.50;;
53751;SDS011;41095;53.090;6.692;2022-09-28T16:16:49;0.50;;;0.50;;
53751;SDS011;41095;53.090;6.692;2022-09-28T16:19:23;1.55;;;0.57;;
53751;SDS011;41095;53.090;6.692;2022-09-28T16:21:51;0.40;;;0.40;;
53751;SDS011;41095;53.090;6.692;2022-09-28T16:24:30;0.75;;;0.50;;
53751;SDS011;41095;53.090;6.692;2022-09-28T16:26:57;0.47;;;0.47;;
53751;SDS011;41095;53.090;6.692;2022-09-28T16:29:35;0.50;;;0.50;;
53751;SDS011;41095;53.090;6.692;2022-09-28T16:37:35;0.57;;;0.57;;
53751;SDS011;41095;53.090;6.692;2022-09-28T16:40:02;1.00;;;0.50;;
53751;SDS011;41095;53.090;6.692;2022-09-28T16:42:28;0.57;;;0.57;;
53751;SDS011;41095;53.090;6.692;2022-09-28T16:44:54;0.65;;;0.60;;
53751;SDS011;41095;53.090;6.692;2022-09-28T16:47:21;0.80;;;0.80;;
53751;SDS011;41095;53.090;6.692;2022-09-28T16:49:47;0.70;;;0.70;;
53751;SDS011;41095;53.090;6.692;2022-09-28T16:52:13;0.50;;;0.50;;
53751;SDS011;41095;53.090;6.692;2022-09-28T16:55:02;1.02;;;0.65;;
53751;SDS011;41095;53.090;6.692;2022-09-28T16:57:44;0.70;;;0.70;;
53751;SDS011;41095;53.090;6.692;2022-09-28T17:00:15;2.40;;;0.80;;
53751;SDS011;41095;53.090;6.692;2022-09-28T17:02:44;2.72;;;0.60;;
53751;SDS011;41095;53.090;6.692;2022-09-28T17:05:10;1.25;;;0.90;;
53751;SDS011;41095;53.090;6.692;2022-09-28T17:07:37;1.20;;;0.70;;
53751;SDS011;41095;53.090;6.692;2022-09-28T17:10:23;0.80;;;0.80;;
53751;SDS011;41095;53.090;6.692;2022-09-28T17:12:51;1.23;;;0.73;;
53751;SDS011;41095;53.090;6.692;2022-09-28T17:15:16;0.60;;;0.60;;
53751;SDS011;41095;53.090;6.692;2022-09-28T17:17:43;1.15;;;0.90;;
53751;SDS011;41095;53.090;6.692;2022-09-28T17:20:28;3.63;;;0.77;;
53751;SDS011;41095;53.090;6.692;2022-09-28T17:22:55;0.88;;;0.88;;
53751;SDS011;41095;53.090;6.692;2022-09-28T17:25:20;2.38;;;1.15;;
53751;SDS011;41095;53.090;6.692;2022-09-28T17:27:48;2.75;;;1.30;;
53751;SDS011;41095;53.090;6.692;2022-09-28T17:30:16;1.38;;;1.23;;
53751;SDS011;41095;53.090;6.692;2022-09-28T17:32:42;0.75;;;0.75;;
53751;SDS011;41095;53.090;6.692;2022-09-28T17:35:11;1.30;;;0.80;;
53751;SDS011;41095;53.090;6.692;2022-09-28T17:37:41;2.35;;;0.88;;
53751;SDS011;41095;53.090;6.692;2022-09-28T17:42:41;1.40;;;1.30;;
53751;SDS011;41095;53.090;6.692;2022-09-28T17:45:07;0.95;;;0.90;;
53751;SDS011;41095;53.090;6.692;2022-09-28T17:47:33;1.65;;;1.02;;
53751;SDS011;41095;53.090;6.692;2022-09-28T17:49:59;1.15;;;0.98;;
53751;SDS011;41095;53.090;6.692;2022-09-28T17:52:24;1.25;;;1.10;;
53751;SDS011;41095;53.090;6.692;2022-09-28T17:54:50;1.33;;;1.23;;
53751;SDS011;41095;53.090;6.692;2022-09-28T17:57:16;2.22;;;1.60;;
53751;SDS011;41095;53.090;6.692;2022-09-28T17:59:41;1.85;;;1.67;;
53751;SDS011;41095;53.090;6.692;2022-09-28T18:02:10;2.55;;;1.98;;
53751;SDS011;41095;53.090;6.692;2022-09-28T18:04:36;2.00;;;1.70;;
53751;SDS011;41095;53.090;6.692;2022-09-28T18:07:01;2.00;;;1.90;;
53751;SDS011;41095;53.090;6.692;2022-09-28T18:09:27;1.80;;;1.70;;
53751;SDS011;41095;53.090;6.692;2022-09-28T18:11:59;2.75;;;2.13;;
53751;SDS011;41095;53.090;6.692;2022-09-28T18:14:28;3.50;;;2.00;;
53751;SDS011;41095;53.090;6.692;2022-09-28T18:16:54;2.33;;;2.08;;
53751;SDS011;41095;53.090;6.692;2022-09-28T18:19:20;2.55;;;1.88;;
53751;SDS011;41095;53.090;6.692;2022-09-28T18:21:46;1.92;;;1.83;;
53751;SDS011;41095;53.090;6.692;2022-09-28T18:24:12;2.35;;;1.92;;
53751;SDS011;41095;53.090;6.692;2022-09-28T18:26:38;2.55;;;2.35;;
53751;SDS011;41095;53.090;6.692;2022-09-28T18:29:03;2.47;;;2.28;;
53751;SDS011;41095;53.090;6.692;2022-09-28T18:31:29;2.20;;;2.00;;
53751;SDS011;41095;53.090;6.692;2022-09-28T18:33:58;1.80;;;1.70;;
53751;SDS011;41095;53.090;6.692;2022-09-28T18:36:31;2.22;;;2.03;;
53751;SDS011;41095;53.090;6.692;2022-09-28T18:38:59;3.58;;;2.28;;
53751;SDS011;41095;53.090;6.692;2022-09-28T18:41:25;2.40;;;2.20;;
53751;SDS011;41095;53.090;6.692;2022-09-28T18:43:52;2.80;;;2.60;;
53751;SDS011;41095;53.090;6.692;2022-09-28T18:46:24;2.67;;;2.30;;
53751;SDS011;41095;53.090;6.692;2022-09-28T18:48:54;2.60;;;2.25;;
53751;SDS011;41095;53.090;6.692;2022-09-28T18:51:20;2.72;;;2.30;;